Terminal Aerodrome Forecast
Issued by NWS

Home | Current Version | Previous Version | Text Only | Print | Product List | Glossary On
Versions: 1 2 3 4 5 6 7 8 9 10 11 12 13 14 15 16 17 18 19 20 21 22 23 24 25 26 27 28 29 30 31
000
FTUS45 KREV 210651 AAA
TAFTVL
TAF AMD
KTVL 210651Z 2107/2206 20015G30KT 2SM -SNRA OVC010 WS015/23050KT
     FM211100 20020G35KT 3SM -SN SCT008 OVC015 WS015/23050KT
     FM211600 20015G28KT 1SM -SN OVC020 WS020/25040KT
     FM220400 20010KT 5SM -SHSN BKN020 OVC030=

USA.gov is the U.S. government's official web portal to all federal, state and local government web resources and services.